Port Washington, OH (43837)

5:47 PM EDT on July 30, 2016 (GMT -0400)
Heller Drive | | Change Station

Elev 792 ft 40.27 °N, 81.61 °W | Updated 2 seconds ago

Rain
Rain
70.8 °F
Feels Like 70.8 °F
N
3.0
Wind Variable Wind from East
Gusts 6.0 mph

Today
High -- | Low -- °F
--% Chance of Precip.
Yesterday
High -- | Low -- °F
Precip. -- in
Pressure 29.96 in
Visibility 2.0 miles
Clouds Scattered Clouds 3000 ft
Mostly Cloudy 4200 ft
Overcast 8000 ft
Dew Point 69 °F
Humidity 93%
Rainfall 0.11 in
Snow Depth Not available.
6:22 AM 8:42 PM
Waning Crescent, 11% visible
SPECI KPHD 302137Z AUTO 27006KT 2SM VCTS RA SCT030 BKN042 OVC080 24/21 A2996 RMK AO2 LTG DSNT NE AND SW RAB17 P0005 T02390206
Pressure 29.96 in
Visibility 2.0 miles
Clouds Scattered Clouds 3000 ft
Mostly Cloudy 4200 ft
Overcast 8000 ft
Dew Point 69 °F
Humidity 93%
Rainfall 0.11 in
Snow Depth Not available.
6:22 AM 8:42 PM
Waning Crescent, 11% visible
SPECI KPHD 302137Z AUTO 27006KT 2SM VCTS RA SCT030 BKN042 OVC080 24/21 A2996 RMK AO2 LTG DSNT NE AND SW RAB17 P0005 T02390206

10-Day Weather Forecast

Almanac

Astronomy

Jul. 30, 2016 Rise Set
Actual Time
Civil Twilight
Nautical Twilight
Astronomical Twilight
Moon
Length of Visible Light
Length of Day
Tomorrow will be .
, % of the Moon is Illuminated

Today's Extremes

State Highs State Lows

Community

WunderPhotos

Upload Photos

1,928,657 photos uploaded!

WunderBlog® & News

Nearby

Air Quality

  Air Quality AQ Index Pollutant
Not available.

Snow Depth

Station Depth Elevation

Earthquake Activity

City Distance Mag. Time & Date
Minimum magnitude displayed is 2.5.

Coastal Water Temperatures

Place Temperature

Stations

Nearby Weather Stations

Station Location Temp. Windchill Dew Point Humidity Wind Precip. Elev Updated Type
                   

Watches & Warnings

There are currently no watches in effect.